Time;durP1;ratioP1;P1;durP2;ratioP2;P2;SDS_P1;SDS_P2;PMS_P1;PMS_P2;Temp;Humidity;BMP_temperature;BMP_pressure;BME280_temperature;BME280_humidity;BME280_pressure;Samples;Min_cycle;Max_cycle;Signal;HPM_P1;HPM_P2
2023/03/05 00:01:11;;;;;;;46.83;21.50;;;1.30;99.90;;;;;;5070099;28;20024;-75
2023/03/05 00:03:36;;;;;;;47.30;21.55;;;1.20;99.90;;;;;;5070341;28;20039;-75
2023/03/05 00:06:02;;;;;;;;;;;1.20;99.90;;;;;;5052805;28;20029;-75
2023/03/05 00:08:30;;;;;;;44.63;21.17;;;1.20;99.90;;;;;;5070226;28;19916;-75
2023/03/05 00:10:57;;;;;;;52.17;23.90;;;1.10;99.90;;;;;;5069495;28;20520;-75
2023/03/05 00:13:23;;;;;;;58.08;23.77;;;1.10;99.90;;;;;;5069884;28;20020;-75
2023/03/05 00:15:48;;;;;;;;;;;1.00;99.90;;;;;;5052216;28;20028;-75
2023/03/05 00:18:14;;;;;;;57.08;25.35;;;1.00;99.90;;;;;;5051835;28;19911;-76
2023/03/05 00:20:39;;;;;;;;;;;1.00;99.90;;;;;;5070080;28;20020;-74
2023/03/05 00:23:05;;;;;;;25.35;12.95;;;0.80;99.90;;;;;;5051545;28;19908;-76
2023/03/05 00:25:33;;;;;;;;;;;0.70;99.90;;;;;;5069851;28;20043;-77
2023/03/05 00:27:59;;;;;;;30.02;14.68;;;0.50;99.90;;;;;;5051621;28;20384;-74
2023/03/05 00:30:24;;;;;;;;;;;0.40;99.90;;;;;;5051935;28;20020;-74
2023/03/05 00:32:50;;;;;;;44.58;18.80;;;0.40;99.90;;;;;;5051198;28;19912;-75
2023/03/05 00:35:15;;;;;;;;;;;0.30;99.90;;;;;;5051905;28;20033;-76
2023/03/05 00:37:41;;;;;;;46.15;18.50;;;0.30;99.90;;;;;;5069315;28;19919;-74
2023/03/05 00:40:07;;;;;;;;;;;0.20;99.90;;;;;;5069763;28;20131;-74
2023/03/05 00:42:37;;;;;;;46.05;17.52;;;0.20;99.90;;;;;;5068290;28;19924;-75
2023/03/05 00:45:07;;;;;;;39.65;16.67;;;0.10;99.90;;;;;;5051007;28;20554;-74
2023/03/05 00:47:33;;;;;;;28.45;12.30;;;0.10;99.90;;;;;;5069045;28;20603;-75
2023/03/05 00:49:58;;;;;;;;;;;0.20;99.90;;;;;;5069258;28;20092;-74
2023/03/05 00:52:24;;;;;;;23.15;9.65;;;0.20;99.90;;;;;;5069327;28;20338;-75
2023/03/05 00:54:50;;;;;;;;;;;0.40;99.90;;;;;;5051382;28;20055;-74
2023/03/05 00:57:15;;;;;;;14.80;7.18;;;0.60;99.90;;;;;;5051143;28;19919;-74
2023/03/05 00:59:41;;;;;;;;;;;0.80;99.90;;;;;;5069047;28;20038;-74
2023/03/05 01:02:06;;;;;;;15.05;7.35;;;1.00;99.90;;;;;;5069003;28;19915;-74
2023/03/05 01:04:32;;;;;;;;;;;1.20;99.90;;;;;;5051214;28;20028;-74
2023/03/05 01:06:58;;;;;;;13.77;6.88;;;1.40;99.90;;;;;;5068666;28;19919;-75
2023/03/05 01:09:24;;;;;;;;;;;1.50;99.90;;;;;;5051235;28;20029;-75
2023/03/05 01:11:50;;;;;;;14.55;7.13;;;1.60;99.90;;;;;;5068866;28;19963;-75
2023/03/05 01:14:16;;;;;;;15.73;6.97;;;1.70;99.90;;;;;;5068775;28;20043;-75
2023/03/05 01:16:41;;;;;;;;;;;1.70;99.90;;;;;;5051065;28;20024;-75
2023/03/05 01:19:07;;;;;;;16.50;7.78;;;1.80;99.90;;;;;;5068583;28;19931;-75
2023/03/05 01:21:34;;;;;;;;;;;1.80;99.90;;;;;;5069034;28;20116;-75
2023/03/05 01:24:00;;;;;;;13.13;6.18;;;1.80;99.90;;;;;;5068480;28;20273;-75
2023/03/05 01:26:25;;;;;;;;;;;2.00;99.90;;;;;;5051308;28;20090;-75
2023/03/05 01:28:51;;;;;;;13.98;6.75;;;1.90;99.90;;;;;;5068442;28;20376;-75
2023/03/05 01:31:16;;;;;;;;;;;1.90;99.90;;;;;;5068727;28;20508;-75
2023/03/05 01:33:42;;;;;;;18.60;7.53;;;1.80;99.90;;;;;;5068518;28;20436;-74
2023/03/05 01:36:12;;;;;;;;;;;1.70;99.90;;;;;;5068932;28;20707;-75
2023/03/05 01:38:38;;;;;;;20.63;8.52;;;1.60;99.90;;;;;;5050566;28;19905;-74
2023/03/05 01:41:03;;;;;;;;;;;1.50;99.90;;;;;;5068782;28;20016;-75
2023/03/05 01:43:30;;;;;;;20.10;9.05;;;1.40;99.90;;;;;;5050315;28;19916;-75
2023/03/05 01:46:28;;;;;;;16.98;9.00;;;1.40;99.90;;;;;;5068332;28;20066;-75
2023/03/05 01:49:00;;;;;;;17.15;8.85;;;1.20;99.90;;;;;;5068267;28;20179;-75
2023/03/05 01:51:30;;;;;;;18.13;8.85;;;1.10;99.90;;;;;;5050175;28;20121;-75
2023/03/05 01:53:58;;;;;;;16.98;8.80;;;1.00;99.90;;;;;;5068605;28;20025;-75
2023/03/05 01:56:25;;;;;;;16.00;8.23;;;0.90;99.90;;;;;;5054071;28;20033;-75
2023/03/05 01:58:52;;;;;;;24.20;11.85;;;0.80;99.90;;;;;;5056916;28;20041;-75
2023/03/05 02:01:18;;;;;;;29.48;14.52;;;0.80;99.90;;;;;;5074826;28;20039;-75
2023/03/05 02:03:44;;;;;;;;;;;0.70;99.90;;;;;;5057590;28;20028;-75
2023/03/05 02:06:09;;;;;;;18.73;9.98;;;0.60;99.90;;;;;;5074964;28;19915;-75
2023/03/05 02:08:35;;;;;;;;;;;0.50;99.90;;;;;;5075226;28;20029;-75
2023/03/05 02:11:01;;;;;;;20.77;9.98;;;0.30;99.90;;;;;;5056465;28;20373;-76
2023/03/05 02:13:31;;;;;;;;;;;0.30;99.90;;;;;;5056966;28;20082;-75
2023/03/05 02:15:58;;;;;;;15.93;8.07;;;0.20;99.90;;;;;;5056673;28;20334;-75
2023/03/05 02:18:24;;;;;;;17.25;8.70;;;0.10;99.90;;;;;;5075026;28;20063;-75
2023/03/05 02:20:50;;;;;;;;;;;0.00;99.90;;;;;;5074849;28;20079;-76
2023/03/05 02:23:17;;;;;;;19.92;7.75;;;-0.10;99.90;;;;;;5074834;28;20494;-75
2023/03/05 02:25:42;;;;;;;18.38;8.18;;;-0.10;99.90;;;;;;5074656;28;20837;-75
2023/03/05 02:28:12;;;;;;;;;;;-0.10;99.90;;;;;;5057057;28;20032;-75
2023/03/05 02:30:38;;;;;;;16.10;7.88;;;-0.10;99.90;;;;;;5074588;28;20033;-75
2023/03/05 02:33:04;;;;;;;;;;;-0.10;99.90;;;;;;5075201;28;20107;-74
2023/03/05 02:35:30;;;;;;;16.60;8.40;;;0.00;99.90;;;;;;5056592;28;20400;-74
2023/03/05 02:37:55;;;;;;;;;;;0.10;99.90;;;;;;5075143;28;20233;-75
2023/03/05 02:40:21;;;;;;;15.23;7.68;;;0.10;99.90;;;;;;5056952;28;19991;-74
2023/03/05 02:42:48;;;;;;;17.42;8.45;;;0.10;99.90;;;;;;5074192;28;20063;-73
2023/03/05 02:45:14;;;;;;;;;;;0.10;99.90;;;;;;5075152;28;20028;-75
2023/03/05 02:47:40;;;;;;;19.77;8.32;;;0.20;99.90;;;;;;5074281;28;19905;-75
2023/03/05 02:50:09;;;;;;;20.35;10.85;;;0.20;99.90;;;;;;5056281;28;20060;-75
2023/03/05 02:52:35;;;;;;;18.73;9.38;;;0.30;99.90;;;;;;5056289;28;20035;-74
2023/03/05 02:55:00;;;;;;;;;;;0.30;99.90;;;;;;5056699;28;20024;-74
2023/03/05 02:57:26;;;;;;;24.77;9.63;;;0.30;99.90;;;;;;5074493;28;19947;-76
2023/03/05 02:59:52;;;;;;;;;;;0.30;99.90;;;;;;5074895;28;20046;-76
2023/03/05 03:02:17;;;;;;;19.90;8.60;;;0.30;99.90;;;;;;5074311;28;19908;-74
2023/03/05 03:04:43;;;;;;;;;;;0.20;99.90;;;;;;5056675;28;20029;-75
2023/03/05 03:07:11;;;;;;;18.38;8.80;;;0.20;99.90;;;;;;5054043;28;19912;-74
2023/03/05 03:09:37;;;;;;;18.60;8.75;;;0.10;99.90;;;;;;5070896;28;20050;-74
2023/03/05 03:12:04;;;;;;;17.85;8.10;;;0.10;99.90;;;;;;5070947;28;20105;-75
2023/03/05 03:14:32;;;;;;;18.15;9.27;;;0.10;99.90;;;;;;5071250;28;20028;-75
2023/03/05 03:16:58;;;;;;;19.67;9.50;;;0.00;99.90;;;;;;5070933;28;20030;-75
2023/03/05 03:19:23;;;;;;;17.77;9.73;;;-0.10;99.90;;;;;;5052968;28;20107;-75
2023/03/05 03:21:49;;;;;;;;;;;0.00;99.90;;;;;;5071178;28;20111;-76
2023/03/05 03:24:15;;;;;;;16.02;8.15;;;0.00;99.90;;;;;;5070821;28;19908;-74
2023/03/05 03:26:40;;;;;;;;;;;-0.10;99.90;;;;;;5053345;28;20021;-74
2023/03/05 03:29:06;;;;;;;20.35;8.95;;;-0.10;99.90;;;;;;5070588;28;19912;-73
2023/03/05 03:31:32;;;;;;;;;;;-0.20;99.90;;;;;;5052965;28;20040;-75
2023/03/05 03:33:57;;;;;;;24.17;11.55;;;-0.20;99.90;;;;;;5052759;28;19904;-74
2023/03/05 03:36:23;;;;;;;;;;;-0.20;99.90;;;;;;5053041;28;20029;-75
2023/03/05 03:38:49;;;;;;;26.70;10.60;;;-0.30;99.90;;;;;;5052399;28;19909;-74
2023/03/05 03:41:15;;;;;;;;;;;-0.30;99.90;;;;;;5053186;28;20135;-74
2023/03/05 03:43:40;;;;;;;21.63;11.13;;;-0.30;99.90;;;;;;5070401;28;19912;-75
2023/03/05 03:46:06;;;;;;;;;;;-0.30;99.90;;;;;;5070485;28;20094;-75
2023/03/05 03:48:32;;;;;;;20.85;10.05;;;-0.30;99.90;;;;;;5052495;28;19966;-74
2023/03/05 03:50:57;;;;;;;;;;;-0.20;99.90;;;;;;5070574;28;20373;-75
2023/03/05 03:53:23;;;;;;;18.13;9.68;;;-0.10;99.90;;;;;;5052448;28;20338;-74
2023/03/05 03:55:49;;;;;;;;;;;0.00;99.90;;;;;;5052927;28;20473;-74
2023/03/05 03:58:14;;;;;;;26.13;10.45;;;0.10;99.90;;;;;;5070681;28;19970;-74
2023/03/05 04:00:40;;;;;;;;;;;0.20;99.90;;;;;;5052540;28;20056;-74
2023/03/05 04:03:07;;;;;;;19.30;10.73;;;0.30;99.90;;;;;;5070280;28;19912;-74
2023/03/05 04:05:33;;;;;;;23.10;11.07;;;0.50;99.90;;;;;;5070125;28;20505;-74
2023/03/05 04:08:00;;;;;;;;;;;0.70;99.90;;;;;;5070549;28;20056;-74
2023/03/05 04:10:26;;;;;;;23.27;11.20;;;0.90;99.90;;;;;;5070133;28;19990;-75
2023/03/05 04:12:51;;;;;;;;;;;1.00;99.90;;;;;;5051797;28;20052;-74
2023/03/05 04:15:17;;;;;;;29.02;13.35;;;1.20;99.90;;;;;;5070077;28;20431;-74
2023/03/05 04:17:42;;;;;;;;;;;1.30;99.90;;;;;;5052476;28;20065;-75
2023/03/05 04:20:09;;;;;;;22.85;11.82;;;1.40;99.90;;;;;;5051351;28;19905;-75
2023/03/05 04:22:36;;;;;;;24.63;11.77;;;1.50;99.90;;;;;;5068591;28;20413;-75
2023/03/05 04:25:05;;;;;;;21.55;12.32;;;1.60;99.90;;;;;;5051417;28;20081;-74
2023/03/05 04:27:33;;;;;;;22.10;11.82;;;1.70;99.90;;;;;;5069525;28;20024;-74
2023/03/05 04:29:59;;;;;;;20.48;11.40;;;1.80;99.90;;;;;;5051408;28;20435;-75
2023/03/05 04:32:28;;;;;;;19.05;11.52;;;1.90;99.90;;;;;;5069436;28;20045;-74
2023/03/05 04:34:55;;;;;;;20.23;11.13;;;2.00;99.90;;;;;;5069318;28;20055;-75
2023/03/05 04:37:21;;;;;;;19.85;10.93;;;2.00;99.90;;;;;;5069094;28;20029;-74
2023/03/05 04:39:47;;;;;;;21.88;11.60;;;2.10;99.90;;;;;;5069399;28;20024;-74
2023/03/05 04:42:13;;;;;;;;;;;2.20;99.90;;;;;;5040454;28;20055;-75
2023/03/05 04:44:41;;;;;;;29.23;14.00;;;2.20;99.90;;;;;;5031220;28;20015;-74
2023/03/05 04:47:07;;;;;;;27.33;13.07;;;2.20;99.90;;;;;;5049211;28;20036;-75
2023/03/05 04:49:32;;;;;;;;;;;2.20;99.90;;;;;;5049753;28;20040;-75
2023/03/05 04:51:58;;;;;;;24.90;13.85;;;2.30;99.90;;;;;;5049069;28;19917;-74
2023/03/05 04:54:23;;;;;;;;;;;2.20;99.90;;;;;;5049762;28;20056;-72
2023/03/05 04:56:49;;;;;;;31.77;16.50;;;2.20;99.90;;;;;;5030977;28;20326;-74
2023/03/05 04:59:15;;;;;;;;;;;2.20;99.90;;;;;;5049616;28;20017;-74
2023/03/05 05:01:41;;;;;;;23.98;12.02;;;2.30;99.90;;;;;;5049021;28;20428;-74
2023/03/05 05:04:07;;;;;;;26.25;13.57;;;2.30;99.90;;;;;;5030827;28;20035;-73
2023/03/05 05:06:33;;;;;;;;;;;2.40;99.90;;;;;;5031303;28;20121;-73
2023/03/05 05:08:58;;;;;;;24.58;14.00;;;2.40;99.90;;;;;;5048594;28;19966;-74
2023/03/05 05:11:24;;;;;;;;;;;2.40;99.90;;;;;;5031201;28;20040;-74
2023/03/05 05:13:50;;;;;;;20.35;12.52;;;2.50;99.90;;;;;;5030880;28;19996;-74
2023/03/05 05:16:15;;;;;;;;;;;2.60;99.90;;;;;;5049029;28;20048;-74
2023/03/05 05:18:41;;;;;;;22.38;12.40;;;2.60;99.90;;;;;;5048625;28;20400;-74
2023/03/05 05:21:07;;;;;;;;;;;2.60;99.90;;;;;;5030980;28;20029;-75
2023/03/05 05:23:33;;;;;;;16.73;10.93;;;2.60;99.90;;;;;;5048182;28;19905;-74
2023/03/05 05:26:00;;;;;;;;;;;2.60;99.90;;;;;;5030769;28;20028;-75
2023/03/05 05:28:26;;;;;;;17.13;10.73;;;2.70;99.90;;;;;;5048450;28;19959;-73
2023/03/05 05:30:52;;;;;;;15.75;10.40;;;2.70;99.90;;;;;;5029639;28;20044;-74
2023/03/05 05:33:19;;;;;;;32.53;16.05;;;2.70;99.90;;;;;;5048860;28;20040;-73
2023/03/05 05:35:44;;;;;;;61.17;28.23;;;2.70;99.90;;;;;;5030510;28;20048;-75
2023/03/05 05:38:10;;;;;;;;;;;2.70;99.90;;;;;;5048738;28;20493;-74
2023/03/05 05:40:36;;;;;;;86.53;33.90;;;2.70;99.90;;;;;;5030270;28;19916;-74
2023/03/05 05:43:01;;;;;;;;;;;2.70;99.90;;;;;;5066473;28;20052;-74
2023/03/05 05:45:27;;;;;;;37.88;17.23;;;2.70;99.90;;;;;;5050102;28;19911;-74
2023/03/05 05:47:52;;;;;;;;;;;2.60;99.90;;;;;;5068820;28;20032;-74
2023/03/05 05:50:19;;;;;;;26.98;15.05;;;2.60;99.90;;;;;;5050214;28;19908;-74
2023/03/05 05:52:45;;;;;;;23.20;12.77;;;2.60;99.90;;;;;;5050021;28;20028;-74
2023/03/05 05:55:11;;;;;;;;;;;2.60;99.90;;;;;;5068381;28;20084;-74
2023/03/05 05:57:36;;;;;;;31.00;16.65;;;2.50;99.90;;;;;;5067863;28;19912;-73
2023/03/05 06:00:04;;;;;;;;;;;2.50;99.90;;;;;;5050581;28;20487;-74
2023/03/05 06:02:30;;;;;;;19.17;12.18;;;2.60;99.90;;;;;;5068049;28;19995;-74
2023/03/05 06:04:56;;;;;;;;;;;2.60;99.90;;;;;;5068559;28;20107;-74
2023/03/05 06:07:21;;;;;;;32.45;16.10;;;2.60;99.90;;;;;;5068046;28;20391;-73
2023/03/05 06:09:47;;;;;;;30.48;15.23;;;2.60;99.90;;;;;;5049766;28;20036;-74
2023/03/05 06:12:13;;;;;;;;;;;2.60;99.90;;;;;;5068123;28;20560;-73
2023/03/05 06:14:38;;;;;;;21.08;12.02;;;2.70;99.90;;;;;;5049686;28;19913;-73
2023/03/05 06:17:04;;;;;;;21.50;12.25;;;2.70;99.90;;;;;;5068083;28;20032;-74
2023/03/05 06:19:30;;;;;;;;;;;2.70;99.90;;;;;;5068416;28;20518;-75
2023/03/05 06:21:55;;;;;;;18.73;9.57;;;2.70;99.90;;;;;;5068008;28;19927;-75
2023/03/05 06:24:21;;;;;;;;;;;2.70;99.90;;;;;;5050312;28;20029;-75
2023/03/05 06:26:48;;;;;;;16.17;8.57;;;2.70;99.90;;;;;;5067461;28;19908;-74
2023/03/05 06:29:14;;;;;;;20.00;11.55;;;2.70;99.90;;;;;;5067752;28;20021;-74
2023/03/05 06:31:39;;;;;;;;;;;2.70;99.90;;;;;;5068250;28;20036;-74
2023/03/05 06:34:05;;;;;;;18.88;10.80;;;2.80;99.90;;;;;;5049642;28;20291;-73
2023/03/05 06:36:31;;;;;;;;;;;2.80;99.90;;;;;;5050203;28;20101;-73
2023/03/05 06:38:57;;;;;;;19.83;9.68;;;2.90;99.90;;;;;;5067875;28;19908;-73
2023/03/05 06:41:29;;;;;;;;;;;3.00;99.90;;;;;;5049792;28;20425;-73
2023/03/05 06:43:56;;;;;;;19.70;10.90;;;3.00;99.90;;;;;;5071470;28;19908;-73
2023/03/05 06:46:27;;;;;;;21.40;10.68;;;3.00;99.90;;;;;;5071442;28;20035;-72
2023/03/05 06:48:59;;;;;;;19.70;11.38;;;3.10;99.90;;;;;;5071398;28;20020;-72
2023/03/05 06:51:28;;;;;;;27.35;13.48;;;3.10;99.90;;;;;;5071237;28;20071;-73
2023/03/05 06:53:58;;;;;;;20.00;10.60;;;3.10;99.90;;;;;;5071391;28;20033;-72
2023/03/05 06:56:23;;;;;;;18.65;10.90;;;3.10;99.90;;;;;;5070961;28;20032;-73
2023/03/05 06:58:50;;;;;;;;;;;3.20;99.90;;;;;;5071317;28;20389;-73
2023/03/05 07:01:16;;;;;;;24.02;13.18;;;3.30;99.90;;;;;;5053039;28;19959;-72
2023/03/05 07:03:42;;;;;;;23.08;12.07;;;3.30;99.90;;;;;;5071410;28;20099;-72
2023/03/05 07:06:09;;;;;;;;;;;3.40;99.90;;;;;;5053614;28;20032;-74
2023/03/05 07:08:35;;;;;;;21.60;11.13;;;3.50;99.90;;;;;;5071271;28;19950;-72
2023/03/05 07:11:01;;;;;;;18.30;9.48;;;3.60;99.90;;;;;;5052453;28;20119;-75
2023/03/05 07:13:26;;;;;;;;;;;3.60;99.90;;;;;;5052637;28;20524;-73
2023/03/05 07:15:52;;;;;;;16.17;9.07;;;3.70;99.90;;;;;;5052634;28;19916;-74
2023/03/05 07:18:18;;;;;;;;;;;3.80;99.90;;;;;;5071185;28;20488;-74
2023/03/05 07:20:43;;;;;;;17.65;8.32;;;3.90;99.90;;;;;;5070283;28;19952;-74
2023/03/05 07:23:09;;;;;;;;;;;3.90;99.90;;;;;;5053473;28;20374;-74
2023/03/05 07:25:36;;;;;;;26.58;11.90;;;3.90;99.90;;;;;;5070892;28;19931;-73
2023/03/05 07:28:04;;;;;;;37.22;21.52;;;4.00;99.90;;;;;;5052677;28;20446;-72
2023/03/05 07:30:30;;;;;;;27.60;14.63;;;4.10;99.90;;;;;;5070461;28;20409;-74
2023/03/05 07:32:56;;;;;;;;;;;4.20;99.90;;;;;;5071031;28;20036;-74
2023/03/05 07:35:23;;;;;;;44.42;19.48;;;4.10;99.90;;;;;;5052494;28;19915;-74
2023/03/05 07:37:49;;;;;;;38.33;16.83;;;4.20;99.90;;;;;;5052625;28;20032;-73
2023/03/05 07:40:14;;;;;;;;;;;4.20;99.90;;;;;;5052969;28;20078;-74
2023/03/05 07:42:40;;;;;;;17.98;8.10;;;4.30;99.90;;;;;;5069889;28;20026;-73
2023/03/05 07:45:06;;;;;;;;;;;4.40;99.90;;;;;;5070855;28;20173;-74
2023/03/05 07:47:31;;;;;;;9.95;5.40;;;4.50;99.90;;;;;;5070319;28;19909;-74
2023/03/05 07:49:57;;;;;;;12.73;6.57;;;4.70;99.90;;;;;;5070510;28;20035;-73
2023/03/05 07:52:23;;;;;;;12.60;5.60;;;4.80;99.90;;;;;;5052343;28;20052;-74
2023/03/05 07:54:48;;;;;;;;;;;4.80;99.90;;;;;;5051860;28;20623;-73
2023/03/05 07:57:14;;;;;;;12.63;5.72;;;4.90;99.90;;;;;;5052056;28;20285;-74
2023/03/05 07:59:41;;;;;;;13.43;5.85;;;4.90;99.90;;;;;;5052185;28;20033;-74
2023/03/05 08:02:10;;;;;;;13.10;6.20;;;5.10;99.90;;;;;;5052246;28;20024;-74
2023/03/05 08:04:37;;;;;;;11.32;6.38;;;5.20;99.90;;;;;;5070076;28;20336;-73
2023/03/05 08:07:03;;;;;;;14.48;5.60;;;5.20;99.90;;;;;;5051955;28;20023;-73
2023/03/05 08:09:28;;;;;;;;;;;5.20;99.90;;;;;;5070635;28;20111;-73
2023/03/05 08:11:54;;;;;;;18.10;7.10;;;5.30;99.90;;;;;;5070068;28;20062;-73
2023/03/05 08:14:20;;;;;;;15.45;7.35;;;5.40;99.90;;;;;;5051966;28;20373;-74
2023/03/05 08:16:45;;;;;;;16.85;6.55;;;5.50;99.90;;;;;;5069886;28;20109;-74
2023/03/05 08:19:11;;;;;;;13.20;6.13;;;5.50;99.90;;;;;;5051904;28;20029;-74
2023/03/05 08:21:37;;;;;;;12.18;6.53;;;5.50;99.90;;;;;;5069689;28;20124;-74
2023/03/05 08:24:04;;;;;;;;;;;5.50;99.90;;;;;;5070425;28;20024;-73
2023/03/05 08:26:34;;;;;;;11.85;5.85;;;5.60;99.90;;;;;;5069978;28;19904;-73
2023/03/05 08:29:01;;;;;;;13.38;6.10;;;5.60;99.90;;;;;;5069554;28;20036;-74
2023/03/05 08:31:29;;;;;;;11.55;6.03;;;5.60;99.90;;;;;;5069471;28;20032;-74
2023/03/05 08:33:56;;;;;;;17.60;10.10;;;5.70;99.90;;;;;;5051727;28;20029;-74
2023/03/05 08:36:22;;;;;;;24.35;11.73;;;5.70;99.90;;;;;;5069394;28;20032;-74
2023/03/05 08:38:49;;;;;;;;;;;5.80;99.90;;;;;;5051926;28;20036;-74
2023/03/05 08:41:16;;;;;;;18.38;9.25;;;5.80;99.90;;;;;;5069328;28;19920;-74
2023/03/05 08:43:42;;;;;;;18.48;8.27;;;5.90;99.90;;;;;;5069276;28;20028;-73
2023/03/05 08:46:08;;;;;;;;;;;5.90;99.90;;;;;;5051760;28;20481;-74
2023/03/05 08:48:34;;;;;;;16.27;8.20;;;6.00;99.90;;;;;;5050931;28;19947;-73
2023/03/05 08:51:04;;;;;;;;;;;6.00;99.90;;;;;;5051179;28;20070;-74
2023/03/05 08:53:29;;;;;;;15.25;7.32;;;6.10;99.90;;;;;;5069136;28;19943;-73
2023/03/05 08:55:56;;;;;;;;;;;6.00;99.90;;;;;;5051478;28;20060;-74
2023/03/05 08:58:23;;;;;;;12.30;6.83;;;6.10;99.90;;;;;;5051193;28;19904;-74
2023/03/05 09:00:48;;;;;;;15.57;7.13;;;6.10;99.90;;;;;;5068568;28;20270;-73
2023/03/05 09:03:14;;;;;;;;;;;6.10;99.90;;;;;;5069533;28;20047;-73
2023/03/05 09:05:40;;;;;;;16.63;7.72;;;6.10;99.90;;;;;;5049829;28;20377;-74
2023/03/05 09:08:05;;;;;;;;;;;6.10;99.90;;;;;;5068958;28;20036;-74
2023/03/05 09:10:31;;;;;;;17.17;8.40;;;6.10;99.90;;;;;;5050667;28;20006;-74
2023/03/05 09:12:56;;;;;;;;;;;6.10;99.90;;;;;;5069049;28;20074;-74
2023/03/05 09:15:22;;;;;;;15.88;7.50;;;6.10;99.90;;;;;;5050765;28;20333;-73
2023/03/05 09:17:48;;;;;;;;;;;6.10;99.90;;;;;;5051493;28;20032;-74
2023/03/05 09:20:14;;;;;;;14.63;7.82;;;6.10;99.90;;;;;;5068606;28;19978;-74
2023/03/05 09:22:40;;;;;;;13.60;7.22;;;6.20;99.90;;;;;;5068583;28;20028;-72
2023/03/05 09:25:07;;;;;;;13.45;6.15;;;6.30;99.90;;;;;;5050646;28;20074;-74
2023/03/05 09:27:34;;;;;;;11.82;6.88;;;6.30;98.20;;;;;;5050575;28;20028;-74
2023/03/05 09:30:00;;;;;;;12.88;6.50;;;6.30;95.70;;;;;;5050595;28;20067;-73
2023/03/05 09:32:26;;;;;;;;;;;6.40;96.20;;;;;;5050972;28;20075;-73
2023/03/05 09:34:51;;;;;;;11.63;5.97;;;6.50;94.20;;;;;;5068350;28;19915;-73
2023/03/05 09:37:17;;;;;;;;;;;6.60;93.60;;;;;;5050958;28;20025;-74
2023/03/05 09:39:43;;;;;;;13.60;7.10;;;6.70;93.60;;;;;;5050181;28;19912;-73
2023/03/05 09:42:08;;;;;;;;;;;6.80;94.50;;;;;;5050424;28;20048;-74
2023/03/05 09:44:45;;;;;;;17.65;6.80;;;6.90;94.10;;;;;;5068578;28;19912;-73
2023/03/05 09:47:47;;;;;;;13.88;6.60;;;7.00;93.80;;;;;;5068343;28;20032;-74
2023/03/05 09:50:59;;;;;;;13.80;7.45;;;7.00;92.90;;;;;;5067945;28;20036;-73
2023/03/05 09:53:46;;;;;;;22.48;10.65;;;7.00;92.60;;;;;;5048991;28;20041;-74
2023/03/05 09:56:29;;;;;;;18.02;9.77;;;7.10;93.90;;;;;;5050389;28;20017;-73
2023/03/05 09:59:03;;;;;;;16.00;9.77;;;7.20;92.80;;;;;;5043528;28;20047;-73
2023/03/05 10:01:38;;;;;;;16.70;8.60;;;7.20;92.20;;;;;;5068325;28;20048;-73
2023/03/05 10:04:18;;;;;;;16.77;7.90;;;7.10;92.00;;;;;;5068253;28;20032;-74
2023/03/05 10:07:03;;;;;;;14.75;8.10;;;7.10;92.10;;;;;;5050083;28;20170;-74
2023/03/05 10:09:50;;;;;;;14.02;7.85;;;7.10;93.00;;;;;;5068204;28;20493;-73
2023/03/05 10:12:41;;;;;;;16.98;8.48;;;7.20;93.60;;;;;;5049738;28;20528;-74
2023/03/05 10:15:39;;;;;;;18.90;8.02;;;7.30;93.30;;;;;;5068095;28;20531;-74
2023/03/05 10:18:20;;;;;;;37.58;20.77;;;7.30;92.90;;;;;;5001091;28;20143;-73
2023/03/05 10:21:11;;;;;;;22.20;11.85;;;7.40;92.30;;;;;;5054001;28;20032;-74
2023/03/05 10:24:06;;;;;;;17.23;9.10;;;7.40;92.50;;;;;;5042659;28;20115;-74
2023/03/05 10:26:49;;;;;;;16.42;8.25;;;7.50;92.60;;;;;;5072153;28;20028;-74
2023/03/05 10:29:54;;;;;;;16.50;8.48;;;7.60;91.80;;;;;;5072315;28;20425;-74
2023/03/05 10:32:56;;;;;;;13.55;6.65;;;7.70;90.60;;;;;;5049767;28;20135;-74
2023/03/05 10:35:35;;;;;;;10.63;5.72;;;7.80;85.40;;;;;;5040671;28;20505;-74
2023/03/05 10:38:04;;;;;;;13.77;5.60;;;7.90;85.20;;;;;;5071674;28;20055;-74
2023/03/05 10:40:35;;;;;;;11.30;5.63;;;8.10;82.10;;;;;;5053669;28;20027;-74
2023/03/05 10:43:16;;;;;;;9.60;5.93;;;8.30;83.70;;;;;;5071403;28;20098;-74
2023/03/05 10:45:47;;;;;;;14.15;5.97;;;8.60;80.30;;;;;;5071569;28;20033;-74
2023/03/05 10:48:22;;;;;;;11.98;5.65;;;8.90;77.70;;;;;;5071637;28;20035;-76
2023/03/05 10:50:54;;;;;;;11.63;6.25;;;9.00;76.60;;;;;;5071202;28;20086;-75
2023/03/05 10:53:35;;;;;;;9.77;5.00;;;9.20;75.70;;;;;;5053522;28;20020;-74
2023/03/05 10:56:05;;;;;;;8.68;4.70;;;9.30;72.30;;;;;;5071302;28;20125;-73
2023/03/05 10:58:31;;;;;;;10.60;5.28;;;9.30;70.30;;;;;;5071215;28;20554;-74
2023/03/05 11:01:23;;;;;;;8.25;4.82;;;9.10;71.40;;;;;;5070901;28;20112;-74
2023/03/05 11:03:59;;;;;;;13.02;5.05;;;9.10;70.70;;;;;;5061873;28;20047;-74
2023/03/05 11:06:38;;;;;;;10.73;5.20;;;9.00;70.60;;;;;;5053049;28;20412;-74
2023/03/05 11:09:13;;;;;;;9.32;4.65;;;8.90;71.90;;;;;;5070922;28;20044;-74
2023/03/05 11:11:38;;;;;;;9.85;4.72;;;8.70;71.60;;;;;;5052860;28;20048;-74
2023/03/05 11:14:04;;;;;;;;;;;8.50;73.00;;;;;;5053352;28;20039;-74
2023/03/05 11:16:33;;;;;;;9.13;4.82;;;8.30;73.40;;;;;;5052773;28;20415;-73
2023/03/05 11:19:34;;;;;;;10.27;4.85;;;8.20;73.90;;;;;;5070454;28;20558;-77
2023/03/05 11:22:21;;;;;;;10.85;4.90;;;8.00;75.50;;;;;;5052753;28;20028;-74
2023/03/05 11:25:11;;;;;;;12.25;5.53;;;7.90;77.70;;;;;;5070461;28;20516;-74
2023/03/05 11:27:45;;;;;;;7.68;5.15;;;7.70;80.10;;;;;;5058691;28;20041;-72
2023/03/05 11:30:23;;;;;;;10.10;4.93;;;7.70;82.40;;;;;;5069737;28;20694;-73
2023/03/05 11:32:49;;;;;;;8.45;4.72;;;7.70;82.90;;;;;;5070320;28;20036;-74
2023/03/05 11:35:28;;;;;;;;;;;7.60;83.10;;;;;;5053358;28;20063;-74
2023/03/05 11:38:00;;;;;;;10.20;4.93;;;7.60;81.40;;;;;;5070424;28;19905;-74
2023/03/05 11:40:29;;;;;;;10.13;5.20;;;7.60;81.40;;;;;;5052898;28;20040;-73
2023/03/05 11:42:57;;;;;;;8.07;4.38;;;7.70;80.20;;;;;;5070695;28;20098;-73
2023/03/05 11:45:25;;;;;;;14.65;4.60;;;7.70;78.80;;;;;;5070613;28;20033;-74
2023/03/05 11:48:00;;;;;;;11.40;4.63;;;7.70;79.00;;;;;;5070654;28;20020;-74
2023/03/05 11:50:32;;;;;;;9.38;3.97;;;7.70;77.80;;;;;;5052188;28;20455;-77
2023/03/05 11:53:06;;;;;;;12.73;4.80;;;7.80;77.30;;;;;;5070230;28;20098;-76
2023/03/05 11:55:52;;;;;;;10.82;4.22;;;7.70;76.80;;;;;;5052395;28;20488;-74
2023/03/05 11:58:39;;;;;;;7.05;4.32;;;7.70;76.50;;;;;;5051782;28;20032;-76
2023/03/05 12:01:24;;;;;;;8.60;4.28;;;7.70;76.60;;;;;;5052354;28;20089;-76
2023/03/05 12:03:51;;;;;;;12.23;5.78;;;7.80;77.40;;;;;;5069939;28;20021;-75
2023/03/05 12:06:39;;;;;;;10.15;4.90;;;7.90;76.30;;;;;;5051916;28;20043;-75
2023/03/05 12:09:22;;;;;;;9.70;4.68;;;7.90;76.80;;;;;;5051903;28;20409;-76
2023/03/05 12:11:52;;;;;;;9.30;4.15;;;8.00;75.50;;;;;;5069581;28;20405;-76
2023/03/05 12:14:18;;;;;;;7.55;3.67;;;8.10;73.00;;;;;;5051782;28;20476;-77
2023/03/05 12:17:02;;;;;;;;;;;8.20;70.90;;;;;;5070081;28;20035;-75
2023/03/05 12:19:43;;;;;;;8.55;4.53;;;8.10;72.30;;;;;;5051670;28;20351;-76
2023/03/05 12:22:22;;;;;;;10.43;4.32;;;8.10;74.20;;;;;;5069719;28;20104;-76
2023/03/05 12:24:48;;;;;;;7.20;3.75;;;7.90;75.20;;;;;;5068915;28;20029;-76
2023/03/05 12:27:36;;;;;;;7.20;3.70;;;7.80;75.20;;;;;;5051750;28;20084;-76
2023/03/05 12:30:04;;;;;;;8.93;3.97;;;7.70;76.10;;;;;;5069601;28;20519;-76
2023/03/05 12:32:32;;;;;;;9.90;3.40;;;7.50;77.80;;;;;;5069569;28;20127;-74
2023/03/05 12:34:59;;;;;;;9.48;3.92;;;7.20;79.80;;;;;;5051289;28;20017;-75
2023/03/05 12:37:25;;;;;;;9.27;3.88;;;7.10;79.50;;;;;;5051404;28;20033;-75
2023/03/05 12:40:05;;;;;;;;;;;7.00;81.30;;;;;;5069679;28;20070;-74
2023/03/05 12:42:52;;;;;;;7.43;3.25;;;6.90;84.30;;;;;;5069216;28;20010;-74
2023/03/05 12:45:18;;;;;;;9.87;3.73;;;6.80;83.50;;;;;;5051029;28;20123;-75
2023/03/05 12:47:44;;;;;;;7.82;4.40;;;6.70;84.20;;;;;;5051300;28;20266;-75
2023/03/05 12:50:46;;;;;;;10.82;3.50;;;6.60;84.00;;;;;;5069103;28;20048;-75
2023/03/05 12:53:18;;;;;;;5.53;3.10;;;6.60;83.20;;;;;;5051183;28;20036;-74
2023/03/05 12:55:56;;;;;;;11.50;4.70;;;6.50;82.40;;;;;;5069140;28;20028;-76
2023/03/05 12:58:25;;;;;;;7.00;3.88;;;6.50;84.90;;;;;;5050933;28;20071;-75
2023/03/05 13:01:02;;;;;;;6.55;3.08;;;6.50;87.20;;;;;;5068734;28;20445;-75
2023/03/05 13:03:35;;;;;;;8.25;3.15;;;6.50;88.20;;;;;;5050878;28;20033;-74
2023/03/05 13:06:04;;;;;;;6.35;3.17;;;6.50;87.00;;;;;;5050954;28;20078;-74
2023/03/05 13:08:34;;;;;;;8.43;3.67;;;6.50;88.90;;;;;;5050645;28;20032;-74
2023/03/05 13:11:03;;;;;;;6.70;2.90;;;6.60;90.00;;;;;;5068500;28;20028;-74
2023/03/05 13:13:50;;;;;;;10.13;3.75;;;6.70;89.10;;;;;;5068473;28;20508;-74
2023/03/05 13:16:18;;;;;;;7.75;3.15;;;6.60;90.10;;;;;;5067989;28;20032;-74
2023/03/05 13:18:47;;;;;;;9.43;3.75;;;6.70;90.70;;;;;;5049416;28;20043;-74
2023/03/05 13:21:19;;;;;;;10.20;4.72;;;6.70;91.00;;;;;;5050821;28;20024;-74